sensor_id;sensor_type;location;lat;lon;timestamp;temperature;humidity
47861;HTU21D;33620;52.340;5.984;2023-12-04T00:01:16;1.41;95.45
47861;HTU21D;33620;52.340;5.984;2023-12-04T00:03:42;1.42;95.44
47861;HTU21D;33620;52.340;5.984;2023-12-04T00:06:07;1.42;95.45
47861;HTU21D;33620;52.340;5.984;2023-12-04T00:08:33;1.40;95.33
47861;HTU21D;33620;52.340;5.984;2023-12-04T00:10:58;1.38;95.36
47861;HTU21D;33620;52.340;5.984;2023-12-04T00:13:24;1.39;95.51
47861;HTU21D;33620;52.340;5.984;2023-12-04T00:15:49;1.39;95.39
47861;HTU21D;33620;52.340;5.984;2023-12-04T00:18:14;1.42;95.41
47861;HTU21D;33620;52.340;5.984;2023-12-04T00:20:40;1.40;95.30
47861;HTU21D;33620;52.340;5.984;2023-12-04T00:23:05;1.42;95.33
47861;HTU21D;33620;52.340;5.984;2023-12-04T00:25:30;1.35;95.19
47861;HTU21D;33620;52.340;5.984;2023-12-04T00:27:56;1.36;95.30
47861;HTU21D;33620;52.340;5.984;2023-12-04T00:30:21;1.41;95.59
47861;HTU21D;33620;52.340;5.984;2023-12-04T00:32:47;1.43;95.36
47861;HTU21D;33620;52.340;5.984;2023-12-04T00:35:13;1.41;95.19
47861;HTU21D;33620;52.340;5.984;2023-12-04T00:37:39;1.38;95.10
47861;HTU21D;33620;52.340;5.984;2023-12-04T00:40:06;1.37;95.14
47861;HTU21D;33620;52.340;5.984;2023-12-04T00:42:32;1.40;95.20
47861;HTU21D;33620;52.340;5.984;2023-12-04T00:44:58;1.38;95.06
47861;HTU21D;33620;52.340;5.984;2023-12-04T00:47:23;1.38;95.02
47861;HTU21D;33620;52.340;5.984;2023-12-04T00:49:49;1.38;94.95
47861;HTU21D;33620;52.340;5.984;2023-12-04T00:52:14;1.38;95.02
47861;HTU21D;33620;52.340;5.984;2023-12-04T00:54:39;1.37;95.01
47861;HTU21D;33620;52.340;5.984;2023-12-04T00:57:06;1.41;95.08
47861;HTU21D;33620;52.340;5.984;2023-12-04T00:59:31;1.39;94.83
47861;HTU21D;33620;52.340;5.984;2023-12-04T01:01:56;1.38;94.71
47861;HTU21D;33620;52.340;5.984;2023-12-04T01:04:22;1.39;94.75
47861;HTU21D;33620;52.340;5.984;2023-12-04T01:06:47;1.39;94.65
47861;HTU21D;33620;52.340;5.984;2023-12-04T01:09:12;1.38;94.58
47861;HTU21D;33620;52.340;5.984;2023-12-04T01:11:38;1.40;94.62
47861;HTU21D;33620;52.340;5.984;2023-12-04T01:14:04;1.40;94.47
47861;HTU21D;33620;52.340;5.984;2023-12-04T01:16:29;1.38;94.36
47861;HTU21D;33620;52.340;5.984;2023-12-04T01:18:56;1.38;94.37
47861;HTU21D;33620;52.340;5.984;2023-12-04T01:21:21;1.37;94.29
47861;HTU21D;33620;52.340;5.984;2023-12-04T01:23:46;1.38;94.41
47861;HTU21D;33620;52.340;5.984;2023-12-04T01:26:12;1.40;94.40
47861;HTU21D;33620;52.340;5.984;2023-12-04T01:28:37;1.42;94.29
47861;HTU21D;33620;52.340;5.984;2023-12-04T01:31:03;1.42;94.36
47861;HTU21D;33620;52.340;5.984;2023-12-04T01:33:30;1.45;94.35
47861;HTU21D;33620;52.340;5.984;2023-12-04T01:35:55;1.43;94.19
47861;HTU21D;33620;52.340;5.984;2023-12-04T01:38:21;1.43;94.20
47861;HTU21D;33620;52.340;5.984;2023-12-04T01:40:46;1.42;94.34
47861;HTU21D;33620;52.340;5.984;2023-12-04T01:43:11;1.45;94.28
47861;HTU21D;33620;52.340;5.984;2023-12-04T01:45:37;1.43;94.17
47861;HTU21D;33620;52.340;5.984;2023-12-04T01:48:03;1.45;94.33
47861;HTU21D;33620;52.340;5.984;2023-12-04T01:50:29;1.46;94.15
47861;HTU21D;33620;52.340;5.984;2023-12-04T01:52:55;1.48;94.23
47861;HTU21D;33620;52.340;5.984;2023-12-04T01:55:20;1.51;94.23
47861;HTU21D;33620;52.340;5.984;2023-12-04T01:57:47;1.52;94.14
47861;HTU21D;33620;52.340;5.984;2023-12-04T02:00:13;1.54;94.17
47861;HTU21D;33620;52.340;5.984;2023-12-04T02:02:39;1.52;93.65
47861;HTU21D;33620;52.340;5.984;2023-12-04T02:05:07;1.52;93.83
47861;HTU21D;33620;52.340;5.984;2023-12-04T02:07:33;1.50;93.78
47861;HTU21D;33620;52.340;5.984;2023-12-04T02:09:59;1.49;93.80
47861;HTU21D;33620;52.340;5.984;2023-12-04T02:12:25;1.48;93.72
47861;HTU21D;33620;52.340;5.984;2023-12-04T02:14:51;1.48;93.71
47861;HTU21D;33620;52.340;5.984;2023-12-04T02:17:16;1.49;93.76
47861;HTU21D;33620;52.340;5.984;2023-12-04T02:19:42;1.50;93.68
47861;HTU21D;33620;52.340;5.984;2023-12-04T02:22:08;1.51;93.66
47861;HTU21D;33620;52.340;5.984;2023-12-04T02:24:33;1.51;93.64
47861;HTU21D;33620;52.340;5.984;2023-12-04T02:27:10;1.52;93.62
47861;HTU21D;33620;52.340;5.984;2023-12-04T02:29:40;1.53;93.56
47861;HTU21D;33620;52.340;5.984;2023-12-04T02:32:08;1.55;93.58
47861;HTU21D;33620;52.340;5.984;2023-12-04T02:34:37;1.53;93.28
47861;HTU21D;33620;52.340;5.984;2023-12-04T02:37:04;1.51;93.30
47861;HTU21D;33620;52.340;5.984;2023-12-04T02:39:30;1.52;93.30
47861;HTU21D;33620;52.340;5.984;2023-12-04T02:41:56;1.54;93.09
47861;HTU21D;33620;52.340;5.984;2023-12-04T02:44:21;1.51;93.06
47861;HTU21D;33620;52.340;5.984;2023-12-04T02:46:46;1.52;92.96
47861;HTU21D;33620;52.340;5.984;2023-12-04T02:49:12;1.53;92.92
47861;HTU21D;33620;52.340;5.984;2023-12-04T02:51:40;1.55;92.88
47861;HTU21D;33620;52.340;5.984;2023-12-04T02:54:06;1.57;92.90
47861;HTU21D;33620;52.340;5.984;2023-12-04T02:56:31;1.58;92.76
47861;HTU21D;33620;52.340;5.984;2023-12-04T02:58:57;1.57;92.71
47861;HTU21D;33620;52.340;5.984;2023-12-04T03:01:22;1.56;92.65
47861;HTU21D;33620;52.340;5.984;2023-12-04T03:03:47;1.55;92.59
47861;HTU21D;33620;52.340;5.984;2023-12-04T03:06:13;1.54;92.46
47861;HTU21D;33620;52.340;5.984;2023-12-04T03:08:41;1.54;92.50
47861;HTU21D;33620;52.340;5.984;2023-12-04T03:11:07;1.56;92.37
47861;HTU21D;33620;52.340;5.984;2023-12-04T03:13:33;1.50;92.18
47861;HTU21D;33620;52.340;5.984;2023-12-04T03:15:59;1.51;92.33
47861;HTU21D;33620;52.340;5.984;2023-12-04T03:18:25;1.53;92.41
47861;HTU21D;33620;52.340;5.984;2023-12-04T03:20:51;1.54;92.37
47861;HTU21D;33620;52.340;5.984;2023-12-04T03:23:16;1.53;92.28
47861;HTU21D;33620;52.340;5.984;2023-12-04T03:25:41;1.55;92.39
47861;HTU21D;33620;52.340;5.984;2023-12-04T03:28:07;1.55;92.39
47861;HTU21D;33620;52.340;5.984;2023-12-04T03:30:32;1.54;92.28
47861;HTU21D;33620;52.340;5.984;2023-12-04T03:32:58;1.55;92.30
47861;HTU21D;33620;52.340;5.984;2023-12-04T03:35:23;1.54;92.22
47861;HTU21D;33620;52.340;5.984;2023-12-04T03:37:48;1.52;92.25
47861;HTU21D;33620;52.340;5.984;2023-12-04T03:40:15;1.52;92.18
47861;HTU21D;33620;52.340;5.984;2023-12-04T03:42:41;1.52;92.23
47861;HTU21D;33620;52.340;5.984;2023-12-04T03:45:06;1.51;92.14
47861;HTU21D;33620;52.340;5.984;2023-12-04T03:47:32;1.51;92.22
47861;HTU21D;33620;52.340;5.984;2023-12-04T03:49:57;1.53;92.27
47861;HTU21D;33620;52.340;5.984;2023-12-04T03:52:22;1.54;92.37
47861;HTU21D;33620;52.340;5.984;2023-12-04T03:54:48;1.54;92.22
47861;HTU21D;33620;52.340;5.984;2023-12-04T03:57:13;1.55;92.18
47861;HTU21D;33620;52.340;5.984;2023-12-04T03:59:39;1.53;92.22
47861;HTU21D;33620;52.340;5.984;2023-12-04T04:02:04;1.52;92.15
47861;HTU21D;33620;52.340;5.984;2023-12-04T04:04:29;1.51;92.11
47861;HTU21D;33620;52.340;5.984;2023-12-04T04:06:55;1.51;92.06
47861;HTU21D;33620;52.340;5.984;2023-12-04T04:09:20;1.51;92.15
47861;HTU21D;33620;52.340;5.984;2023-12-04T04:11:46;1.53;92.18
47861;HTU21D;33620;52.340;5.984;2023-12-04T04:14:11;1.53;92.01
47861;HTU21D;33620;52.340;5.984;2023-12-04T04:16:36;1.55;92.10
47861;HTU21D;33620;52.340;5.984;2023-12-04T04:19:02;1.55;91.98
47861;HTU21D;33620;52.340;5.984;2023-12-04T04:21:27;1.53;91.85
47861;HTU21D;33620;52.340;5.984;2023-12-04T04:23:52;1.52;91.82
47861;HTU21D;33620;52.340;5.984;2023-12-04T04:26:19;1.52;91.86
47861;HTU21D;33620;52.340;5.984;2023-12-04T04:28:44;1.52;91.80
47861;HTU21D;33620;52.340;5.984;2023-12-04T04:31:09;1.50;91.77
47861;HTU21D;33620;52.340;5.984;2023-12-04T04:33:35;1.48;91.78
47861;HTU21D;33620;52.340;5.984;2023-12-04T04:36:00;1.48;91.85
47861;HTU21D;33620;52.340;5.984;2023-12-04T04:38:25;1.49;91.72
47861;HTU21D;33620;52.340;5.984;2023-12-04T04:40:51;1.49;91.67
47861;HTU21D;33620;52.340;5.984;2023-12-04T04:43:18;1.49;91.82
47861;HTU21D;33620;52.340;5.984;2023-12-04T04:45:43;1.50;91.74
47861;HTU21D;33620;52.340;5.984;2023-12-04T04:48:08;1.48;91.64
47861;HTU21D;33620;52.340;5.984;2023-12-04T04:50:34;1.45;91.66
47861;HTU21D;33620;52.340;5.984;2023-12-04T04:52:59;1.43;91.50
47861;HTU21D;33620;52.340;5.984;2023-12-04T04:55:25;1.39;91.50
47861;HTU21D;33620;52.340;5.984;2023-12-04T04:57:50;1.42;91.52
47861;HTU21D;33620;52.340;5.984;2023-12-04T05:00:16;1.40;91.43
47861;HTU21D;33620;52.340;5.984;2023-12-04T05:02:42;1.40;91.47
47861;HTU21D;33620;52.340;5.984;2023-12-04T05:05:07;1.39;91.27
47861;HTU21D;33620;52.340;5.984;2023-12-04T05:07:33;1.38;91.21
47861;HTU21D;33620;52.340;5.984;2023-12-04T05:09:58;1.40;91.33
47861;HTU21D;33620;52.340;5.984;2023-12-04T05:12:24;1.38;91.32
47861;HTU21D;33620;52.340;5.984;2023-12-04T05:14:49;1.38;91.35
47861;HTU21D;33620;52.340;5.984;2023-12-04T05:17:15;1.40;91.29
47861;HTU21D;33620;52.340;5.984;2023-12-04T05:19:40;1.37;91.28
47861;HTU21D;33620;52.340;5.984;2023-12-04T05:22:05;1.36;91.21
47861;HTU21D;33620;52.340;5.984;2023-12-04T05:24:31;1.35;91.13
47861;HTU21D;33620;52.340;5.984;2023-12-04T05:26:56;1.34;90.96
47861;HTU21D;33620;52.340;5.984;2023-12-04T05:29:22;1.35;90.89
47861;HTU21D;33620;52.340;5.984;2023-12-04T05:31:47;1.33;90.61
47861;HTU21D;33620;52.340;5.984;2023-12-04T05:34:12;1.35;90.67
47861;HTU21D;33620;52.340;5.984;2023-12-04T05:36:38;1.36;90.54
47861;HTU21D;33620;52.340;5.984;2023-12-04T05:39:03;1.36;90.55
47861;HTU21D;33620;52.340;5.984;2023-12-04T05:41:29;1.37;90.48
47861;HTU21D;33620;52.340;5.984;2023-12-04T05:43:55;1.35;90.41
47861;HTU21D;33620;52.340;5.984;2023-12-04T05:46:20;1.35;90.40
47861;HTU21D;33620;52.340;5.984;2023-12-04T05:48:46;1.35;90.38
47861;HTU21D;33620;52.340;5.984;2023-12-04T05:51:11;1.35;90.35
47861;HTU21D;33620;52.340;5.984;2023-12-04T05:53:36;1.38;90.34
47861;HTU21D;33620;52.340;5.984;2023-12-04T05:56:02;1.33;89.95
47861;HTU21D;33620;52.340;5.984;2023-12-04T05:58:28;1.31;89.95
47861;HTU21D;33620;52.340;5.984;2023-12-04T06:00:53;1.35;89.92
47861;HTU21D;33620;52.340;5.984;2023-12-04T06:03:18;1.34;89.66
47861;HTU21D;33620;52.340;5.984;2023-12-04T06:05:44;1.33;89.61
47861;HTU21D;33620;52.340;5.984;2023-12-04T06:08:09;1.34;89.67
47861;HTU21D;33620;52.340;5.984;2023-12-04T06:10:34;1.35;89.70
47861;HTU21D;33620;52.340;5.984;2023-12-04T06:13:00;1.36;89.70
47861;HTU21D;33620;52.340;5.984;2023-12-04T06:15:26;1.35;89.71
47861;HTU21D;33620;52.340;5.984;2023-12-04T06:17:51;1.36;89.66
47861;HTU21D;33620;52.340;5.984;2023-12-04T06:20:16;1.35;89.54
47861;HTU21D;33620;52.340;5.984;2023-12-04T06:22:42;1.34;89.46
47861;HTU21D;33620;52.340;5.984;2023-12-04T06:25:08;1.35;89.38
47861;HTU21D;33620;52.340;5.984;2023-12-04T06:27:34;1.33;89.33
47861;HTU21D;33620;52.340;5.984;2023-12-04T06:29:59;1.33;89.22
47861;HTU21D;33620;52.340;5.984;2023-12-04T06:32:25;1.32;89.11
47861;HTU21D;33620;52.340;5.984;2023-12-04T06:34:51;1.33;88.88
47861;HTU21D;33620;52.340;5.984;2023-12-04T06:37:16;1.31;88.68
47861;HTU21D;33620;52.340;5.984;2023-12-04T06:39:45;1.33;88.65
47861;HTU21D;33620;52.340;5.984;2023-12-04T06:42:11;1.33;88.71
47861;HTU21D;33620;52.340;5.984;2023-12-04T06:44:36;1.34;88.88
47861;HTU21D;33620;52.340;5.984;2023-12-04T06:47:03;1.35;88.79
47861;HTU21D;33620;52.340;5.984;2023-12-04T06:49:33;1.35;88.46
47861;HTU21D;33620;52.340;5.984;2023-12-04T06:51:59;1.35;88.28
47861;HTU21D;33620;52.340;5.984;2023-12-04T06:54:25;1.36;88.29
47861;HTU21D;33620;52.340;5.984;2023-12-04T06:56:50;1.40;88.21
47861;HTU21D;33620;52.340;5.984;2023-12-04T06:59:17;1.41;88.17
47861;HTU21D;33620;52.340;5.984;2023-12-04T07:01:42;1.42;88.18
47861;HTU21D;33620;52.340;5.984;2023-12-04T07:04:08;1.45;88.18
47861;HTU21D;33620;52.340;5.984;2023-12-04T07:06:38;1.43;87.78
47861;HTU21D;33620;52.340;5.984;2023-12-04T07:09:03;1.43;87.71
47861;HTU21D;33620;52.340;5.984;2023-12-04T07:11:29;1.47;87.47
47861;HTU21D;33620;52.340;5.984;2023-12-04T07:13:55;1.45;86.92
47861;HTU21D;33620;52.340;5.984;2023-12-04T07:16:20;1.49;87.06
47861;HTU21D;33620;52.340;5.984;2023-12-04T07:18:46;1.50;86.90
47861;HTU21D;33620;52.340;5.984;2023-12-04T07:21:11;1.53;86.93
47861;HTU21D;33620;52.340;5.984;2023-12-04T07:23:37;1.54;86.76
47861;HTU21D;33620;52.340;5.984;2023-12-04T07:26:03;1.55;86.75
47861;HTU21D;33620;52.340;5.984;2023-12-04T07:28:28;1.55;86.61
47861;HTU21D;33620;52.340;5.984;2023-12-04T07:30:55;1.55;86.33
47861;HTU21D;33620;52.340;5.984;2023-12-04T07:33:20;1.57;86.48
47861;HTU21D;33620;52.340;5.984;2023-12-04T07:35:46;1.55;86.44
47861;HTU21D;33620;52.340;5.984;2023-12-04T07:38:12;1.55;86.39
47861;HTU21D;33620;52.340;5.984;2023-12-04T07:40:37;1.54;86.36
47861;HTU21D;33620;52.340;5.984;2023-12-04T07:43:03;1.53;86.29
47861;HTU21D;33620;52.340;5.984;2023-12-04T07:45:28;1.53;86.12
47861;HTU21D;33620;52.340;5.984;2023-12-04T07:47:53;1.53;86.01
47861;HTU21D;33620;52.340;5.984;2023-12-04T07:50:19;1.54;86.04
47861;HTU21D;33620;52.340;5.984;2023-12-04T07:52:44;1.56;86.27
47861;HTU21D;33620;52.340;5.984;2023-12-04T07:55:09;1.55;86.00
47861;HTU21D;33620;52.340;5.984;2023-12-04T07:57:35;1.54;85.76
47861;HTU21D;33620;52.340;5.984;2023-12-04T08:00:00;1.56;85.76
47861;HTU21D;33620;52.340;5.984;2023-12-04T08:02:25;1.60;85.53
47861;HTU21D;33620;52.340;5.984;2023-12-04T08:04:51;1.62;85.27
47861;HTU21D;33620;52.340;5.984;2023-12-04T08:07:16;1.62;85.07
47861;HTU21D;33620;52.340;5.984;2023-12-04T08:09:41;1.64;85.13
47861;HTU21D;33620;52.340;5.984;2023-12-04T08:12:07;1.68;85.53
47861;HTU21D;33620;52.340;5.984;2023-12-04T08:14:32;1.69;85.37
47861;HTU21D;33620;52.340;5.984;2023-12-04T08:16:58;1.69;85.22
47861;HTU21D;33620;52.340;5.984;2023-12-04T08:19:24;1.70;85.06
47861;HTU21D;33620;52.340;5.984;2023-12-04T08:21:49;1.73;85.03
47861;HTU21D;33620;52.340;5.984;2023-12-04T08:24:14;1.72;85.04
47861;HTU21D;33620;52.340;5.984;2023-12-04T08:26:42;1.75;84.94
47861;HTU21D;33620;52.340;5.984;2023-12-04T08:29:07;1.72;84.36
47861;HTU21D;33620;52.340;5.984;2023-12-04T08:31:33;1.76;84.60
47861;HTU21D;33620;52.340;5.984;2023-12-04T08:33:58;1.78;84.47
47861;HTU21D;33620;52.340;5.984;2023-12-04T08:36:24;1.78;84.14
47861;HTU21D;33620;52.340;5.984;2023-12-04T08:38:49;1.78;84.12
47861;HTU21D;33620;52.340;5.984;2023-12-04T08:41:15;1.83;84.34
47861;HTU21D;33620;52.340;5.984;2023-12-04T08:43:40;1.85;84.64
47861;HTU21D;33620;52.340;5.984;2023-12-04T08:46:06;1.85;84.71
47861;HTU21D;33620;52.340;5.984;2023-12-04T08:48:32;1.85;84.26
47861;HTU21D;33620;52.340;5.984;2023-12-04T08:50:58;1.87;84.11
47861;HTU21D;33620;52.340;5.984;2023-12-04T08:53:24;1.91;84.16
47861;HTU21D;33620;52.340;5.984;2023-12-04T08:55:49;1.94;84.32
47861;HTU21D;33620;52.340;5.984;2023-12-04T08:58:17;1.95;84.60
47861;HTU21D;33620;52.340;5.984;2023-12-04T09:00:42;1.96;84.54
47861;HTU21D;33620;52.340;5.984;2023-12-04T09:03:11;1.96;84.30
47861;HTU21D;33620;52.340;5.984;2023-12-04T09:05:36;1.99;84.20
47861;HTU21D;33620;52.340;5.984;2023-12-04T09:08:03;2.00;84.29
47861;HTU21D;33620;52.340;5.984;2023-12-04T09:10:28;2.03;84.19
47861;HTU21D;33620;52.340;5.984;2023-12-04T09:12:54;2.07;83.92
47861;HTU21D;33620;52.340;5.984;2023-12-04T09:15:19;2.09;83.79
47861;HTU21D;33620;52.340;5.984;2023-12-04T09:17:45;2.06;83.02
47861;HTU21D;33620;52.340;5.984;2023-12-04T09:20:10;2.08;83.05
47861;HTU21D;33620;52.340;5.984;2023-12-04T09:22:36;2.11;83.35
47861;HTU21D;33620;52.340;5.984;2023-12-04T09:25:07;2.12;83.55
47861;HTU21D;33620;52.340;5.984;2023-12-04T09:27:34;2.10;83.48
47861;HTU21D;33620;52.340;5.984;2023-12-04T09:29:59;2.08;83.10
47861;HTU21D;33620;52.340;5.984;2023-12-04T09:32:24;2.12;83.00
47861;HTU21D;33620;52.340;5.984;2023-12-04T09:34:50;2.13;82.73
47861;HTU21D;33620;52.340;5.984;2023-12-04T09:37:15;2.16;82.79
47861;HTU21D;33620;52.340;5.984;2023-12-04T09:39:40;2.20;82.65
47861;HTU21D;33620;52.340;5.984;2023-12-04T09:42:07;2.22;82.54
47861;HTU21D;33620;52.340;5.984;2023-12-04T09:44:34;2.26;82.59
47861;HTU21D;33620;52.340;5.984;2023-12-04T09:47:02;2.28;82.63
47861;HTU21D;33620;52.340;5.984;2023-12-04T09:49:28;2.31;82.74
47861;HTU21D;33620;52.340;5.984;2023-12-04T09:51:57;2.36;82.82
47861;HTU21D;33620;52.340;5.984;2023-12-04T09:54:23;2.40;82.97
47861;HTU21D;33620;52.340;5.984;2023-12-04T09:56:49;2.40;82.63
47861;HTU21D;33620;52.340;5.984;2023-12-04T09:59:15;2.41;82.10
47861;HTU21D;33620;52.340;5.984;2023-12-04T10:01:43;2.44;82.42
47861;HTU21D;33620;52.340;5.984;2023-12-04T10:04:09;2.51;82.67
47861;HTU21D;33620;52.340;5.984;2023-12-04T10:06:36;2.53;82.52
47861;HTU21D;33620;52.340;5.984;2023-12-04T10:09:02;2.52;82.07
47861;HTU21D;33620;52.340;5.984;2023-12-04T10:11:28;2.50;81.82
47861;HTU21D;33620;52.340;5.984;2023-12-04T10:13:54;2.51;82.11
47861;HTU21D;33620;52.340;5.984;2023-12-04T10:16:36;2.50;81.69
47861;HTU21D;33620;52.340;5.984;2023-12-04T10:19:34;2.51;81.54
47861;HTU21D;33620;52.340;5.984;2023-12-04T10:21:59;2.52;82.04
47861;HTU21D;33620;52.340;5.984;2023-12-04T10:26:58;2.50;81.24
47861;HTU21D;33620;52.340;5.984;2023-12-04T10:29:27;2.51;81.33
47861;HTU21D;33620;52.340;5.984;2023-12-04T10:31:52;2.52;81.46
47861;HTU21D;33620;52.340;5.984;2023-12-04T10:34:20;2.52;80.98
47861;HTU21D;33620;52.340;5.984;2023-12-04T10:36:46;2.55;81.52
47861;HTU21D;33620;52.340;5.984;2023-12-04T10:39:12;2.57;81.64
47861;HTU21D;33620;52.340;5.984;2023-12-04T10:41:40;2.58;81.54
47861;HTU21D;33620;52.340;5.984;2023-12-04T10:44:05;2.59;81.25
47861;HTU21D;33620;52.340;5.984;2023-12-04T10:46:32;2.58;80.45
47861;HTU21D;33620;52.340;5.984;2023-12-04T10:48:59;2.60;80.43
47861;HTU21D;33620;52.340;5.984;2023-12-04T10:51:25;2.62;80.46
47861;HTU21D;33620;52.340;5.984;2023-12-04T10:53:51;2.64;80.56
47861;HTU21D;33620;52.340;5.984;2023-12-04T10:56:30;2.68;80.63
47861;HTU21D;33620;52.340;5.984;2023-12-04T10:58:57;2.69;80.52
47861;HTU21D;33620;52.340;5.984;2023-12-04T11:01:25;2.68;79.62
47861;HTU21D;33620;52.340;5.984;2023-12-04T11:03:52;2.73;80.40
47861;HTU21D;33620;52.340;5.984;2023-12-04T11:06:20;2.76;80.88
47861;HTU21D;33620;52.340;5.984;2023-12-04T11:08:47;2.81;81.22
47861;HTU21D;33620;52.340;5.984;2023-12-04T11:11:16;2.80;80.58
47861;HTU21D;33620;52.340;5.984;2023-12-04T11:13:45;2.79;80.62
47861;HTU21D;33620;52.340;5.984;2023-12-04T11:18:51;2.81;80.14
47861;HTU21D;33620;52.340;5.984;2023-12-04T11:21:20;2.82;80.34
47861;HTU21D;33620;52.340;5.984;2023-12-04T11:23:46;2.86;81.27
47861;HTU21D;33620;52.340;5.984;2023-12-04T11:26:11;2.86;81.31
47861;HTU21D;33620;52.340;5.984;2023-12-04T11:28:37;2.88;80.98
47861;HTU21D;33620;52.340;5.984;2023-12-04T11:31:04;2.90;81.13
47861;HTU21D;33620;52.340;5.984;2023-12-04T11:33:37;2.94;81.34
47861;HTU21D;33620;52.340;5.984;2023-12-04T11:36:10;2.95;81.23
47861;HTU21D;33620;52.340;5.984;2023-12-04T11:38:37;2.96;81.18
47861;HTU21D;33620;52.340;5.984;2023-12-04T11:41:17;2.97;80.67
47861;HTU21D;33620;52.340;5.984;2023-12-04T11:43:42;3.01;80.91
47861;HTU21D;33620;52.340;5.984;2023-12-04T11:46:12;3.01;80.52
47861;HTU21D;33620;52.340;5.984;2023-12-04T11:48:39;3.04;81.11
47861;HTU21D;33620;52.340;5.984;2023-12-04T11:51:07;3.02;80.13
47861;HTU21D;33620;52.340;5.984;2023-12-04T11:53:37;3.03;80.17
47861;HTU21D;33620;52.340;5.984;2023-12-04T11:56:10;3.03;79.92
47861;HTU21D;33620;52.340;5.984;2023-12-04T11:58:43;3.03;79.37
47861;HTU21D;33620;52.340;5.984;2023-12-04T12:01:09;3.06;79.63
47861;HTU21D;33620;52.340;5.984;2023-12-04T12:03:34;3.09;80.25
47861;HTU21D;33620;52.340;5.984;2023-12-04T12:06:00;3.09;80.04
47861;HTU21D;33620;52.340;5.984;2023-12-04T12:08:28;3.06;79.66
47861;HTU21D;33620;52.340;5.984;2023-12-04T12:10:54;3.04;79.55
47861;HTU21D;33620;52.340;5.984;2023-12-04T12:13:20;3.02;79.21
47861;HTU21D;33620;52.340;5.984;2023-12-04T12:15:50;3.02;79.17
47861;HTU21D;33620;52.340;5.984;2023-12-04T12:18:16;3.06;80.11
47861;HTU21D;33620;52.340;5.984;2023-12-04T12:20:42;3.04;79.96
47861;HTU21D;33620;52.340;5.984;2023-12-04T12:23:08;3.06;80.14
47861;HTU21D;33620;52.340;5.984;2023-12-04T12:25:34;3.06;79.78
47861;HTU21D;33620;52.340;5.984;2023-12-04T12:28:03;3.04;79.57
47861;HTU21D;33620;52.340;5.984;2023-12-04T12:30:29;3.04;79.70
47861;HTU21D;33620;52.340;5.984;2023-12-04T12:32:54;3.04;79.38
47861;HTU21D;33620;52.340;5.984;2023-12-04T12:35:19;3.05;79.19
47861;HTU21D;33620;52.340;5.984;2023-12-04T12:37:45;3.05;78.56
47861;HTU21D;33620;52.340;5.984;2023-12-04T12:40:11;3.08;79.11
47861;HTU21D;33620;52.340;5.984;2023-12-04T12:42:37;3.09;79.44
47861;HTU21D;33620;52.340;5.984;2023-12-04T12:45:07;3.10;79.21
47861;HTU21D;33620;52.340;5.984;2023-12-04T12:47:35;3.09;79.01
47861;HTU21D;33620;52.340;5.984;2023-12-04T12:50:01;3.06;78.54
47861;HTU21D;33620;52.340;5.984;2023-12-04T12:52:28;3.08;78.66
47861;HTU21D;33620;52.340;5.984;2023-12-04T12:54:53;3.10;79.14
47861;HTU21D;33620;52.340;5.984;2023-12-04T12:57:19;3.13;79.72
47861;HTU21D;33620;52.340;5.984;2023-12-04T12:59:45;3.15;79.72
47861;HTU21D;33620;52.340;5.984;2023-12-04T13:02:10;3.14;79.72
47861;HTU21D;33620;52.340;5.984;2023-12-04T13:04:42;3.14;79.82
47861;HTU21D;33620;52.340;5.984;2023-12-04T13:07:08;3.15;79.28
47861;HTU21D;33620;52.340;5.984;2023-12-04T13:09:34;3.17;79.46
47861;HTU21D;33620;52.340;5.984;2023-12-04T13:12:01;3.17;79.03
47861;HTU21D;33620;52.340;5.984;2023-12-04T13:14:26;3.14;78.23
47861;HTU21D;33620;52.340;5.984;2023-12-04T13:16:51;3.16;78.64
47861;HTU21D;33620;52.340;5.984;2023-12-04T13:19:17;3.18;78.79
47861;HTU21D;33620;52.340;5.984;2023-12-04T13:21:45;3.21;79.09
47861;HTU21D;33620;52.340;5.984;2023-12-04T13:24:10;3.24;78.98
47861;HTU21D;33620;52.340;5.984;2023-12-04T13:26:36;3.23;78.98
47861;HTU21D;33620;52.340;5.984;2023-12-04T13:29:02;3.26;78.91
47861;HTU21D;33620;52.340;5.984;2023-12-04T13:31:27;3.26;78.74
47861;HTU21D;33620;52.340;5.984;2023-12-04T13:33:53;3.28;79.14
47861;HTU21D;33620;52.340;5.984;2023-12-04T13:36:18;3.29;78.97
47861;HTU21D;33620;52.340;5.984;2023-12-04T13:38:44;3.30;78.75
47861;HTU21D;33620;52.340;5.984;2023-12-04T13:41:09;3.30;78.23
47861;HTU21D;33620;52.340;5.984;2023-12-04T13:43:55;3.31;78.27
47861;HTU21D;33620;52.340;5.984;2023-12-04T13:46:21;3.33;78.19
47861;HTU21D;33620;52.340;5.984;2023-12-04T13:48:46;3.38;78.80
47861;HTU21D;33620;52.340;5.984;2023-12-04T13:51:12;3.39;78.79
47861;HTU21D;33620;52.340;5.984;2023-12-04T13:53:38;3.38;78.21
47861;HTU21D;33620;52.340;5.984;2023-12-04T13:56:09;3.39;78.36
47861;HTU21D;33620;52.340;5.984;2023-12-04T13:58:37;3.36;77.72
47861;HTU21D;33620;52.340;5.984;2023-12-04T14:01:05;3.36;77.99
47861;HTU21D;33620;52.340;5.984;2023-12-04T14:03:42;3.40;78.21
47861;HTU21D;33620;52.340;5.984;2023-12-04T14:06:08;3.39;77.97
47861;HTU21D;33620;52.340;5.984;2023-12-04T14:08:33;3.39;78.08
47861;HTU21D;33620;52.340;5.984;2023-12-04T14:10:59;3.38;78.28
47861;HTU21D;33620;52.340;5.984;2023-12-04T14:13:24;3.36;78.43
47861;HTU21D;33620;52.340;5.984;2023-12-04T14:15:50;3.39;78.72
47861;HTU21D;33620;52.340;5.984;2023-12-04T14:18:15;3.39;79.00
47861;HTU21D;33620;52.340;5.984;2023-12-04T14:20:40;3.35;78.80
47861;HTU21D;33620;52.340;5.984;2023-12-04T14:23:06;3.36;78.91
47861;HTU21D;33620;52.340;5.984;2023-12-04T14:25:31;3.36;79.12
47861;HTU21D;33620;52.340;5.984;2023-12-04T14:27:56;3.35;79.73
47861;HTU21D;33620;52.340;5.984;2023-12-04T14:30:22;3.34;79.78
47861;HTU21D;33620;52.340;5.984;2023-12-04T14:32:47;3.33;79.79
47861;HTU21D;33620;52.340;5.984;2023-12-04T14:35:14;3.34;79.83
47861;HTU21D;33620;52.340;5.984;2023-12-04T14:37:40;3.30;78.74
47861;HTU21D;33620;52.340;5.984;2023-12-04T14:40:05;3.29;78.67
47861;HTU21D;33620;52.340;5.984;2023-12-04T14:42:31;3.29;79.40
47861;HTU21D;33620;52.340;5.984;2023-12-04T14:44:56;3.27;79.37
47861;HTU21D;33620;52.340;5.984;2023-12-04T14:47:22;3.26;79.46
47861;HTU21D;33620;52.340;5.984;2023-12-04T14:49:47;3.20;79.50
47861;HTU21D;33620;52.340;5.984;2023-12-04T14:52:18;3.19;79.80
47861;HTU21D;33620;52.340;5.984;2023-12-04T14:54:46;3.20;79.97
47861;HTU21D;33620;52.340;5.984;2023-12-04T14:57:30;3.17;80.10
47861;HTU21D;33620;52.340;5.984;2023-12-04T15:00:06;3.17;80.40
47861;HTU21D;33620;52.340;5.984;2023-12-04T15:02:50;3.16;80.65
47861;HTU21D;33620;52.340;5.984;2023-12-04T15:05:47;3.19;80.63
47861;HTU21D;33620;52.340;5.984;2023-12-04T15:08:45;3.17;80.79
47861;HTU21D;33620;52.340;5.984;2023-12-04T15:11:29;3.14;81.23
47861;HTU21D;33620;52.340;5.984;2023-12-04T15:14:09;3.15;81.36
47861;HTU21D;33620;52.340;5.984;2023-12-04T15:16:46;3.14;81.34
47861;HTU21D;33620;52.340;5.984;2023-12-04T15:19:20;3.13;81.43
47861;HTU21D;33620;52.340;5.984;2023-12-04T15:22:00;3.12;81.18
47861;HTU21D;33620;52.340;5.984;2023-12-04T15:24:25;3.09;81.08
47861;HTU21D;33620;52.340;5.984;2023-12-04T15:26:51;3.06;81.01
47861;HTU21D;33620;52.340;5.984;2023-12-04T15:29:17;3.03;80.96
47861;HTU21D;33620;52.340;5.984;2023-12-04T15:31:45;3.01;80.78